createdAt,value
2017-07-07T00:07:36.713Z,0
2017-07-07T00:17:51.860Z,0
2017-07-07T00:28:07.427Z,0
2017-07-07T00:38:22.403Z,0
2017-07-07T00:48:37.768Z,0
2017-07-07T00:58:51.775Z,0
2017-07-07T01:09:05.499Z,0
2017-07-07T01:19:20.944Z,0
2017-07-07T01:29:34.795Z,0
2017-07-07T01:39:48.811Z,0
2017-07-07T01:50:03.344Z,0
2017-07-07T02:00:18.824Z,0
2017-07-07T02:10:32.616Z,0
2017-07-07T02:20:47.692Z,0
2017-07-07T02:31:02.784Z,0
2017-07-07T02:41:17.419Z,0
2017-07-07T02:51:31.823Z,8
2017-07-07T03:01:46.579Z,24
2017-07-07T03:12:01.370Z,68
2017-07-07T03:22:15.174Z,156
2017-07-07T03:32:29.179Z,204
2017-07-07T03:42:44.802Z,92
2017-07-07T03:52:58.806Z,264
2017-07-07T04:03:12.562Z,1056
2017-07-07T04:13:27.187Z,1868
2017-07-07T04:23:41.812Z,3404
2017-07-07T04:33:57.513Z,4588
2017-07-07T04:44:11.928Z,7176
2017-07-07T04:54:25.780Z,7992
2017-07-07T05:04:40.520Z,9104
2017-07-07T05:14:55.661Z,9620
2017-07-07T05:25:10.874Z,10000
2017-07-07T05:35:25.248Z,10076
2017-07-07T05:45:40.094Z,9416
2017-07-07T05:55:54.781Z,10116
2017-07-07T06:06:08.610Z,18464
2017-07-07T06:16:24.626Z,25120
2017-07-07T06:26:39.212Z,30624
2017-07-07T06:36:53.600Z,15748
2017-07-07T06:47:09.015Z,32992
2017-07-07T06:57:24.268Z,29536
2017-07-07T07:07:38.503Z,39840
2017-07-07T07:17:53.183Z,21088
2017-07-07T07:28:08.534Z,56800
2017-07-07T07:38:24.328Z,54304
2017-07-07T07:48:39.750Z,57184
2017-07-07T07:58:54.078Z,43840
2017-07-07T08:09:09.974Z,60000
2017-07-07T08:19:24.337Z,61024
2017-07-07T08:29:40.294Z,64768
2017-07-07T08:39:56.088Z,69696
2017-07-07T08:50:10.394Z,75808
2017-07-07T09:00:26.124Z,59584
2017-07-07T09:10:41.353Z,76960
2017-07-07T09:20:56.382Z,74944
2017-07-07T09:31:11.283Z,62464
2017-07-07T09:41:26.282Z,72160
2017-07-07T09:51:41.495Z,59456
2017-07-07T10:01:56.779Z,58400
2017-07-07T10:12:11.309Z,36736
2017-07-07T10:22:26.885Z,33408
2017-07-07T10:32:41.832Z,89120
2017-07-07T10:42:56.076Z,36256
2017-07-07T10:53:10.133Z,61728
2017-07-07T11:03:25.685Z,93280
2017-07-07T11:13:40.578Z,43232
2017-07-07T11:23:55.297Z,50048
2017-07-07T11:34:09.645Z,70560
2017-07-07T11:44:23.926Z,48160
2017-07-07T11:54:39.078Z,44704
2017-07-07T12:04:53.300Z,99008
2017-07-07T12:15:08.679Z,29088
2017-07-07T12:25:22.897Z,32320
2017-07-07T12:35:37.815Z,95104
2017-07-07T12:45:51.839Z,45088
2017-07-07T12:56:07.143Z,86848
2017-07-07T13:06:22.548Z,80448
2017-07-07T13:16:37.900Z,36224
2017-07-07T13:26:53.560Z,96928
2017-07-07T13:37:08.521Z,31808
2017-07-07T13:47:24.190Z,16772
2017-07-07T13:57:38.655Z,100320
2017-07-07T14:07:54.479Z,86784
2017-07-07T14:18:09.846Z,74944
2017-07-07T14:28:24.562Z,76352
2017-07-07T14:38:39.409Z,19616
2017-07-07T14:48:55.163Z,17440
2017-07-07T14:59:09.842Z,12080
2017-07-07T15:09:25.265Z,10652
2017-07-07T15:19:41.001Z,10840
2017-07-07T15:29:55.303Z,23072
2017-07-07T15:40:10.169Z,45280
2017-07-07T15:50:23.606Z,42688
2017-07-07T16:00:38.813Z,40544
2017-07-07T16:10:53.914Z,40192
2017-07-07T16:21:08.160Z,28704
2017-07-07T16:31:23.154Z,29408
2017-07-07T16:41:37.171Z,29248
2017-07-07T16:51:51.416Z,27264
2017-07-07T17:02:05.422Z,26432
2017-07-07T17:12:21.148Z,25184
2017-07-07T17:22:36.035Z,19104
2017-07-07T17:32:49.987Z,15452
2017-07-07T17:43:05.023Z,12584
2017-07-07T17:53:19.193Z,14924
2017-07-07T18:03:34.627Z,9752
2017-07-07T18:13:48.559Z,10272
2017-07-07T18:24:04.234Z,7628
2017-07-07T18:34:18.692Z,4932
2017-07-07T18:44:33.032Z,3564
2017-07-07T18:54:47.499Z,3200
2017-07-07T19:05:02.671Z,2292
2017-07-07T19:15:17.769Z,1692
2017-07-07T19:25:31.970Z,1328
2017-07-07T19:35:46.877Z,488
2017-07-07T19:46:01.745Z,348
2017-07-07T19:56:17.109Z,184
2017-07-07T20:06:31.390Z,72
2017-07-07T20:16:45.953Z,24
2017-07-07T20:27:01.696Z,8
2017-07-07T20:37:17.176Z,4
2017-07-07T20:47:31.115Z,0
2017-07-07T20:57:45.601Z,0
2017-07-07T21:08:01.036Z,0
2017-07-07T21:18:14.864Z,0
2017-07-07T21:28:28.980Z,0
2017-07-07T21:38:44.537Z,0
2017-07-07T21:48:58.728Z,0
2017-07-07T21:59:12.729Z,0
2017-07-07T22:09:28.168Z,0
2017-07-07T22:19:42.759Z,0
2017-07-07T22:29:56.943Z,0
2017-07-07T22:40:11.141Z,0
2017-07-07T22:50:25.701Z,0
2017-07-07T23:00:40.520Z,0
2017-07-07T23:10:55.963Z,0
2017-07-07T23:21:11.745Z,0
2017-07-07T23:31:26.266Z,0
2017-07-07T23:41:40.339Z,0
2017-07-07T23:51:55.146Z,0
